フェロー諸島 の空港の天気 - METARとTAF

ヴァガール空港 ( EKVG / FAE ) - フェロー諸島 フェロー諸島
飛行場実況気象(Metar)
観測時間11/26 23:20 WET (11/26 23:20 UTC)
風向・風速北 12m/s 瞬間風速18m/s
視程10km以上
天気現象弱い雪
全天の8割程度の雲 雲底高度 760m
全天の8割程度の雲 雲底高度 1490m
気温0℃
湿度64%
気圧1015hPa
METAREKVG 262320Z AUTO 35024G35KT 9999 -SN BKN025/// BKN049/// M00/M06 Q1015 REFZRA RMK OVC022/// WIND SKEID 35030G48KT 320V030
過去の天気等 Google飛行場航空写真 Wunderground天気予報

過去48時間のMETAR

飛行場予報(TAF)
発表時間: 11/26 14:20 WET (11/26 14:20 UTC)
予報対象時間: 26日15時 WET ~ 26日21時 WET
風向・風速北 13m/s
視程10km以上
全天の4割程度の雲 雲底高度 610m
全天の8割程度の雲 雲底高度 910m
26日15時 WET ~ 26日19時 WET に一時的に
風向・風速北 14m/s 瞬間風速 22m/s
視程4000m
天気現象しゅう雨雪
全天の8割程度の塔状積雲 雲底高度 300m
TAF EKVG 261420Z 2615/2621 01025KT 9999 SCT020 BKN030
TEMPO 2615/2619 35028G42KT 4000 SHRASN BKN010TCU